Time;durP1;ratioP1;P1;durP2;ratioP2;P2;SDS_P1;SDS_P2;PMS_P1;PMS_P2;Temp;Humidity;BMP_temperature;BMP_pressure;BME280_temperature;BME280_humidity;BME280_pressure;Samples;Min_cycle;Max_cycle;Signal;HPM_P1;HPM_P2
2022/04/28 00:02:17;;;;;;;8.90;3.05;;;;;;;16.92;53.46;95165.06;5090490;28;20111;-82
2022/04/28 00:04:43;;;;;;;8.43;2.60;;;;;;;17.24;53.31;95206.69;5091215;28;20481;-82
2022/04/28 00:07:09;;;;;;;8.32;2.45;;;;;;;16.62;52.75;95098.25;5099649;28;20501;-82
2022/04/28 00:09:34;;;;;;;5.63;2.20;;;;;;;16.78;52.77;95123.47;5068494;28;20024;-82
2022/04/28 00:12:00;;;;;;;7.80;2.53;;;;;;;16.38;52.33;95087.94;5090377;28;20114;-83
2022/04/28 00:14:25;;;;;;;11.52;2.67;;;;;;;17.25;52.67;95220.88;5092320;28;20108;-83
2022/04/28 00:16:51;;;;;;;12.30;3.05;;;;;;;16.67;52.13;95103.44;5074083;28;20039;-83
2022/04/28 00:19:16;;;;;;;9.68;2.78;;;;;;;17.23;51.91;95190.94;5073669;28;20044;-83
2022/04/28 00:21:41;;;;;;;5.53;2.45;;;;;;;16.16;52.40;95052.16;5073939;28;20031;-83
2022/04/28 00:24:07;;;;;;;8.88;2.55;;;;;;;17.10;53.22;95215.97;5091491;28;20117;-83
2022/04/28 00:26:33;;;;;;;10.02;2.53;;;;;;;16.62;52.02;95101.72;5074567;28;20265;-83
2022/04/28 00:28:58;;;;;;;14.40;3.05;;;;;;;17.05;51.99;95184.00;5094279;28;20033;-83
2022/04/28 00:31:24;;;;;;;10.98;2.42;;;;;;;17.34;51.48;95225.16;5108024;28;20035;-83
2022/04/28 00:33:49;;;;;;;9.00;2.33;;;;;;;16.70;51.59;95141.09;5096698;28;20051;-83
2022/04/28 00:36:15;;;;;;;3.85;2.35;;;;;;;17.00;50.97;95171.53;5107947;28;20124;-82
2022/04/28 00:38:41;;;;;;;10.60;2.70;;;;;;;16.83;51.26;95155.44;5094144;28;20120;-83
2022/04/28 00:41:06;;;;;;;9.93;2.47;;;;;;;17.10;51.19;95187.28;5093144;28;20036;-82
2022/04/28 00:43:33;;;;;;;10.10;3.50;;;;;;;17.40;51.41;95230.34;5088494;28;20060;-82
2022/04/28 00:45:59;;;;;;;9.05;3.42;;;;;;;17.02;52.23;95206.03;5083241;28;20036;-82
2022/04/28 00:51:12;;;;;;;8.43;2.38;;;;;;;16.56;51.89;95129.66;5077114;28;20093;-82
2022/04/28 00:53:44;;;;;;;14.93;2.80;;;;;;;17.19;51.39;95235.53;5068918;28;20565;-82
2022/04/28 00:56:10;;;;;;;16.35;3.42;;;;;;;17.18;51.37;95239.31;5072458;28;20029;-82
2022/04/28 00:58:39;;;;;;;8.35;2.88;;;;;;;16.40;52.39;95163.34;5071229;28;20315;-82
2022/04/28 01:01:05;;;;;;;7.68;2.88;;;;;;;16.04;53.29;95150.91;5091640;28;20035;-82
2022/04/28 01:03:30;;;;;;;11.13;3.03;;;;;;;16.12;54.00;95195.66;5095374;28;20051;-82
2022/04/28 01:05:59;;;;;;;10.20;3.90;;;;;;;16.04;54.20;95208.97;5092575;28;20068;-82
2022/04/28 01:08:25;;;;;;;12.43;3.55;;;;;;;15.62;53.96;95138.13;5079328;28;20055;-82
2022/04/28 01:10:55;;;;;;;17.67;3.50;;;;;;;15.90;54.41;95200.25;5092936;28;20024;-82
2022/04/28 01:13:20;;;;;;;19.10;3.85;;;;;;;15.40;54.34;95122.88;5067291;28;20039;-82
2022/04/28 01:15:48;;;;;;;9.73;3.92;;;;;;;16.18;54.84;95252.47;5096224;28;20086;-82
2022/04/28 01:18:14;;;;;;;8.50;3.10;;;;;;;15.64;54.84;95162.69;5085227;28;20046;-82
2022/04/28 01:20:40;;;;;;;9.57;3.55;;;;;;;15.28;54.36;95090.56;5102086;28;20102;-83
2022/04/28 01:23:07;;;;;;;15.48;3.88;;;;;;;15.73;54.48;95160.81;5088738;28;20079;-82
2022/04/28 01:25:33;;;;;;;7.65;3.28;;;;;;;16.17;54.34;95224.94;5091339;28;20375;-82
2022/04/28 01:27:58;;;;;;;13.63;4.00;;;;;;;15.45;54.96;95150.25;5090958;28;20035;-82
2022/04/28 01:30:24;;;;;;;11.65;4.05;;;;;;;15.74;55.06;95186.47;5090596;28;20083;-82
2022/04/28 01:32:54;;;;;;;11.18;3.55;;;;;;;15.38;55.11;95149.09;5090171;28;20028;-82
2022/04/28 01:35:20;;;;;;;13.93;4.03;;;;;;;15.54;54.78;95153.00;5090112;28;20064;-82
2022/04/28 01:37:45;;;;;;;8.95;2.78;;;;;;;15.36;54.74;95140.59;5072140;28;20130;-82
2022/04/28 01:40:11;;;;;;;8.65;3.63;;;;;;;16.23;54.16;95257.72;5086429;28;20166;-82
2022/04/28 01:42:41;;;;;;;6.32;2.90;;;;;;;16.26;54.46;95257.09;5075739;28;20032;-82
2022/04/28 01:45:08;;;;;;;8.50;3.47;;;;;;;15.56;54.50;95169.53;5089485;28;20027;-82
2022/04/28 01:47:35;;;;;;;10.40;3.17;;;;;;;15.50;55.43;95220.69;5083817;28;20028;-83
2022/04/28 01:50:00;;;;;;;13.27;3.70;;;;;;;15.48;55.41;95218.34;5090178;28;20028;-83
2022/04/28 01:55:10;;;;;;;13.85;3.47;;;;;;;15.85;55.63;95264.56;5090241;28;20085;-82
2022/04/28 01:57:35;;;;;;;13.18;2.97;;;;;;;15.05;55.69;95160.00;5071467;28;20070;-82
2022/04/28 02:00:03;;;;;;;6.88;2.78;;;;;;;15.22;55.58;95188.75;5071810;28;20047;-82
2022/04/28 02:02:29;;;;;;;9.90;4.10;;;;;;;15.73;55.57;95251.72;5089522;28;20474;-83
2022/04/28 02:04:58;;;;;;;9.30;3.40;;;;;;;15.44;55.77;95226.16;5089800;28;20034;-82
2022/04/28 02:07:25;;;;;;;9.80;3.80;;;;;;;15.80;55.90;95276.16;5093255;28;20023;-83
2022/04/28 02:09:50;;;;;;;19.48;4.50;;;;;;;14.98;56.14;95151.63;5085288;28;20547;-83
2022/04/28 02:12:16;;;;;;;17.13;4.60;;;;;;;15.19;55.98;95188.53;5089599;28;20043;-83
2022/04/28 02:14:41;;;;;;;9.65;3.90;;;;;;;15.51;56.88;95257.81;5088659;28;20525;-83
2022/04/28 02:17:07;;;;;;;10.68;3.65;;;;;;;15.72;56.98;95272.31;5089742;28;20398;-83
2022/04/28 02:19:35;;;;;;;11.63;3.53;;;;;;;15.65;56.93;95274.63;5050667;28;20048;-82
2022/04/28 02:22:04;;;;;;;12.02;4.55;;;;;;;15.38;57.95;95254.09;5068510;28;20039;-83
2022/04/28 02:24:29;;;;;;;16.80;4.60;;;;;;;15.31;57.24;95228.91;5050582;28;20032;-83
2022/04/28 02:26:55;;;;;;;10.02;4.32;;;;;;;14.81;57.76;95161.34;5050917;28;20036;-83
2022/04/28 02:29:20;;;;;;;11.50;3.95;;;;;;;14.97;58.79;95232.81;5068357;28;20029;-82
2022/04/28 02:31:46;;;;;;;21.08;6.03;;;;;;;14.67;58.21;95170.16;5085842;28;20123;-83
2022/04/28 02:34:11;;;;;;;27.05;7.15;;;;;;;15.15;58.44;95243.66;5052065;28;20101;-83
2022/04/28 02:36:37;;;;;;;27.75;7.88;;;;;;;15.19;58.20;95242.75;5049397;28;20025;-83
2022/04/28 02:39:03;;;;;;;11.30;4.00;;;;;;;15.44;58.71;95284.97;5031956;28;20036;-83
2022/04/28 02:41:29;;;;;;;17.27;5.53;;;;;;;14.74;58.69;95187.66;5065803;28;20025;-83
2022/04/28 02:43:54;;;;;;;18.30;6.05;;;;;;;14.90;57.91;95176.34;5034121;28;20024;-83
2022/04/28 02:46:20;;;;;;;20.20;4.97;;;;;;;15.17;58.01;95254.84;5068777;28;20052;-83
2022/04/28 02:48:46;;;;;;;19.38;6.45;;;;;;;14.64;58.12;95159.31;5050399;28;20506;-82
2022/04/28 02:51:12;;;;;;;23.85;4.63;;;;;;;14.37;58.60;95128.06;5050501;28;20039;-83
2022/04/28 02:53:38;;;;;;;15.43;4.75;;;;;;;14.40;59.37;95164.06;5050537;28;20037;-82
2022/04/28 02:56:04;;;;;;;9.63;4.70;;;;;;;14.64;59.12;95168.13;5050574;28;20222;-82
2022/04/28 02:58:31;;;;;;;21.23;5.55;;;;;;;14.76;61.21;95249.56;5050217;28;20029;-83
2022/04/28 03:00:56;;;;;;;12.55;5.47;;;;;;;14.23;63.01;95231.31;5056140;28;20396;-82
2022/04/28 03:03:22;;;;;;;12.82;5.93;;;;;;;13.51;63.95;95162.44;5043667;28;20032;-82
2022/04/28 03:11:15;;;;;;;18.88;6.45;;;;;;;14.51;63.54;95272.97;5051789;28;20039;-82
2022/04/28 03:13:41;;;;;;;22.65;6.25;;;;;;;14.36;63.16;95233.19;5050270;28;20482;-83
2022/04/28 03:16:07;;;;;;;18.23;5.20;;;;;;;15.04;62.69;95299.97;5068416;28;20032;-82
2022/04/28 03:18:33;;;;;;;12.85;5.05;;;;;;;14.49;62.01;95210.34;5061464;28;20036;-82
2022/04/28 03:20:59;;;;;;;18.65;5.13;;;;;;;14.54;61.86;95219.03;5037527;28;20024;-82
2022/04/28 03:23:25;;;;;;;13.30;5.65;;;;;;;15.14;61.22;95315.00;5067840;28;20434;-83
2022/04/28 03:25:51;;;;;;;12.48;5.25;;;;;;;15.06;61.41;95302.34;5067664;28;20039;-83
2022/04/28 03:28:21;;;;;;;15.43;5.75;;;;;;;15.25;61.27;95319.06;5067905;28;20444;-83
2022/04/28 03:30:48;;;;;;;20.05;5.10;;;;;;;14.37;61.37;95209.97;5049533;28;20044;-83
2022/04/28 03:33:15;;;;;;;15.27;5.03;;;;;;;15.24;61.40;95327.38;5034760;28;20099;-83
2022/04/28 03:35:40;;;;;;;7.32;4.72;;;;;;;14.34;61.93;95224.72;5064084;28;20028;-83
2022/04/28 03:38:09;;;;;;;12.00;5.82;;;;;;;14.48;61.71;95248.78;5084253;28;20036;-83
2022/04/28 03:40:35;;;;;;;16.42;5.38;;;;;;;13.62;63.06;95146.28;5051234;28;20448;-83
2022/04/28 03:43:01;;;;;;;10.68;5.93;;;;;;;13.44;63.98;95148.69;5047724;28;20033;-83
2022/04/28 03:45:26;;;;;;;16.63;6.25;;;;;;;14.74;63.89;95350.50;5050818;28;20039;-83
2022/04/28 03:47:52;;;;;;;12.65;6.95;;;;;;;14.11;64.98;95301.13;5071071;28;20149;-83
2022/04/28 03:50:17;;;;;;;14.40;7.30;;;;;;;13.71;65.35;95246.59;5071276;28;20039;-83
2022/04/28 03:52:43;;;;;;;11.55;7.88;;;;;;;14.04;65.94;95315.91;5065721;28;20028;-83
2022/04/28 03:55:09;;;;;;;12.27;7.57;;;;;;;13.66;66.88;95291.97;5058050;28;20033;-83
2022/04/28 03:57:36;;;;;;;11.30;8.15;;;;;;;14.05;67.11;95365.50;5071449;28;20538;-83
2022/04/28 04:00:03;;;;;;;13.68;8.77;;;;;;;13.10;67.29;95236.81;5071437;28;20448;-83
2022/04/28 04:02:28;;;;;;;13.30;8.15;;;;;;;13.54;66.91;95280.97;5071237;28;20028;-83
2022/04/28 04:04:54;;;;;;;14.00;9.27;;;;;;;13.18;66.79;95223.97;5053145;28;20082;-83
2022/04/28 04:07:19;;;;;;;11.23;8.70;;;;;;;13.59;66.91;95277.44;5067871;28;20471;-83
2022/04/28 04:09:45;;;;;;;13.98;9.18;;;;;;;13.23;67.32;95240.66;5071219;28;20119;-83
2022/04/28 04:12:10;;;;;;;13.00;9.35;;;;;;;13.98;67.61;95375.75;5053989;28;20044;-83
2022/04/28 04:14:36;;;;;;;17.13;10.07;;;;;;;13.64;67.46;95299.47;5049276;28;20035;-83
2022/04/28 04:17:01;;;;;;;13.90;9.77;;;;;;;13.79;68.38;95373.88;5070063;28;20537;-83
2022/04/28 04:19:29;;;;;;;17.02;10.18;;;;;;;12.83;68.73;95268.56;5070453;28;20032;-83
2022/04/28 04:21:55;;;;;;;21.23;10.60;;;;;;;12.47;68.98;95177.75;5047447;28;20587;-83
2022/04/28 04:24:20;;;;;;;16.17;10.77;;;;;;;13.20;68.52;95294.47;5068251;28;20028;-83
2022/04/28 04:26:45;;;;;;;14.68;9.80;;;;;;;13.63;68.46;95347.72;5042039;28;20140;-83
2022/04/28 04:29:12;;;;;;;11.35;9.38;;;;;;;12.99;68.40;95247.88;5051191;28;20128;-83
2022/04/28 04:34:27;;;;;;;20.80;9.25;;;;;;;13.65;68.86;95401.53;5058054;28;20044;-84
2022/04/28 04:36:53;;;;;;;15.45;9.77;;;;;;;12.67;68.99;95228.06;5058612;28;20047;-83
2022/04/28 04:39:18;;;;;;;15.00;9.13;;;;;;;13.13;68.41;95275.41;5060915;28;20021;-83
2022/04/28 04:41:43;;;;;;;16.08;9.05;;;;;;;12.67;67.91;95222.72;5053852;28;20212;-83
2022/04/28 04:44:14;;;;;;;16.58;8.90;;;;;;;12.94;68.28;95282.56;5055583;28;20397;-83
2022/04/28 04:46:41;;;;;;;18.05;8.88;;;;;;;13.23;68.01;95312.56;5034244;28;20043;-83
2022/04/28 04:49:07;;;;;;;11.90;7.88;;;;;;;12.59;67.47;95257.16;5037296;28;20121;-84
2022/04/28 04:51:33;;;;;;;12.20;5.88;;;;;;;12.63;67.52;95260.84;5053066;28;20625;-83
2022/04/28 04:53:58;;;;;;;12.18;6.47;;;;;;;12.86;68.11;95318.59;5055330;28;20037;-83
2022/04/28 04:56:24;;;;;;;10.27;5.40;;;;;;;12.31;68.54;95259.59;5035521;28;20127;-84
2022/04/28 04:58:50;;;;;;;12.15;5.43;;;;;;;11.07;68.25;95060.16;5041451;28;20416;-83
2022/04/28 05:01:33;;;;;;;8.32;5.65;;;;;;;12.38;68.25;95244.09;5034048;28;20699;-83
2022/04/28 05:03:59;;;;;;;10.07;5.50;;;;;;;13.10;68.14;95369.97;5042005;28;20406;-83
2022/04/28 05:06:24;;;;;;;7.38;4.72;;;;;;;12.51;69.21;95318.97;5054729;28;20268;-83
2022/04/28 05:08:51;;;;;;;10.15;4.50;;;;;;;12.32;70.25;95327.66;5043514;28;20028;-84
2022/04/28 05:11:17;;;;;;;8.43;4.57;;;;;;;12.43;70.27;95327.56;5051443;28;20587;-84
2022/04/28 05:13:43;;;;;;;6.93;3.53;;;;;;;12.73;69.70;95367.97;5035400;28;20103;-83
2022/04/28 05:16:49;;;;;;;9.75;3.83;;;;;;;12.44;68.85;95356.53;5047045;28;20037;-83
2022/04/28 05:19:14;;;;;;;6.30;3.10;;;;;;;8.76;68.35;94799.13;5031732;28;20134;-83
2022/04/28 05:21:40;;;;;;;5.00;3.17;;;;;;;10.03;67.96;95017.13;5055151;28;20146;-84
2022/04/28 05:24:05;;;;;;;12.50;3.58;;;;;;;11.19;68.07;95168.63;5039934;28;20582;-83
2022/04/28 05:26:31;;;;;;;10.63;3.20;;;;;;;11.50;68.29;95291.34;5038760;28;20036;-83
2022/04/28 05:28:56;;;;;;;6.07;2.67;;;;;;;12.40;69.72;95448.59;5042316;28;20112;-83
2022/04/28 05:31:22;;;;;;;10.13;2.83;;;;;;;10.45;70.62;95201.44;5053879;28;20032;-84
2022/04/28 05:33:47;;;;;;;8.13;3.00;;;;;;;11.55;71.34;95378.97;5054282;28;20033;-83
2022/04/28 05:36:15;;;;;;;11.90;3.22;;;;;;;11.53;70.08;95320.00;5060671;28;20040;-82
2022/04/28 05:38:41;;;;;;;5.50;2.63;;;;;;;11.67;69.81;95347.56;5051577;28;20033;-83
2022/04/28 05:41:07;;;;;;;13.88;2.88;;;;;;;12.28;69.96;95469.44;5054140;28;20127;-84
2022/04/28 05:46:19;;;;;;;8.95;2.40;;;;;;;12.15;70.52;95449.56;5054693;28;20122;-83
2022/04/28 05:48:45;;;;;;;11.63;2.90;;;;;;;11.79;70.19;95389.75;5030914;28;20123;-83
2022/04/28 05:51:14;;;;;;;4.75;2.55;;;;;;;10.98;70.16;95238.84;5033918;28;20041;-83
2022/04/28 05:53:40;;;;;;;6.75;2.55;;;;;;;11.79;71.94;95419.78;5025941;28;20029;-83
2022/04/28 05:56:06;;;;;;;9.23;2.70;;;;;;;12.10;72.27;95472.75;5031302;28;20244;-84
2022/04/28 05:58:32;;;;;;;8.45;2.40;;;;;;;11.71;72.59;95444.22;5047446;28;20654;-83
2022/04/28 06:00:59;;;;;;;4.47;1.75;;;;;;;10.72;72.69;95297.31;5050035;28;20526;-83
2022/04/28 06:03:24;;;;;;;6.20;2.00;;;;;;;11.66;73.91;95480.66;5032248;28;20101;-84
2022/04/28 06:05:52;;;;;;;7.70;1.92;;;;;;;11.00;74.28;95394.06;5031928;28;20025;-84
2022/04/28 06:08:18;;;;;;;2.28;1.90;;;;;;;11.21;74.90;95439.94;5031339;28;20466;-84
2022/04/28 06:10:43;;;;;;;6.25;2.35;;;;;;;11.40;74.66;95442.78;5051056;28;20075;-83
2022/04/28 06:13:09;;;;;;;4.13;2.45;;;;;;;10.80;74.36;95338.41;5028304;28;20185;-83
2022/04/28 06:15:34;;;;;;;4.75;2.13;;;;;;;11.18;73.60;95385.50;5027968;28;20036;-84
2022/04/28 06:18:00;;;;;;;3.63;2.45;;;;;;;10.69;74.91;95329.69;5035181;28;20079;-84
2022/04/28 06:20:26;;;;;;;15.00;2.75;;;;;;;10.50;74.98;95307.47;5044107;28;20033;-84
2022/04/28 06:22:52;;;;;;;8.27;1.92;;;;;;;11.72;75.47;95471.59;5028656;28;20157;-83
2022/04/28 06:25:18;;;;;;;4.22;2.53;;;;;;;11.42;74.91;95428.16;5048882;28;20114;-83
2022/04/28 06:27:44;;;;;;;5.78;2.42;;;;;;;11.63;75.09;95436.03;5048776;28;20048;-83
2022/04/28 06:30:10;;;;;;;8.90;2.05;;;;;;;11.83;74.20;95489.09;5029914;28;20040;-82
2022/04/28 06:32:35;;;;;;;3.55;2.28;;;;;;;10.94;75.23;95378.44;5028848;28;20368;-84
2022/04/28 06:35:02;;;;;;;10.07;2.10;;;;;;;10.98;75.47;95406.03;5029570;28;20044;-83
2022/04/28 06:37:28;;;;;;;4.35;2.10;;;;;;;10.05;74.88;95250.03;5025653;28;21453;-82
2022/04/28 06:39:53;;;;;;;4.18;1.60;;;;;;;10.76;74.85;95403.66;5022253;28;20041;-84
2022/04/28 06:42:19;;;;;;;3.33;1.80;;;;;;;10.82;74.84;95410.56;5031275;28;20036;-82
2022/04/28 06:44:44;;;;;;;7.55;2.80;;;;;;;11.49;75.23;95492.41;5040740;28;20035;-82
2022/04/28 06:47:10;;;;;;;5.80;2.38;;;;;;;10.76;75.09;95367.31;5042745;28;20040;-82
2022/04/28 06:49:37;;;;;;;3.78;2.22;;;;;;;10.10;74.62;95234.09;5032398;28;20143;-82
2022/04/28 06:52:02;;;;;;;7.47;2.42;;;;;;;11.37;74.48;95420.19;5048257;28;20487;-81
2022/04/28 06:54:28;;;;;;;7.80;2.78;;;;;;;12.04;74.64;95495.91;5047293;28;20043;-82
2022/04/28 06:56:53;;;;;;;16.02;2.28;;;;;;;11.19;74.53;95411.00;5047829;28;20067;-82
2022/04/28 06:59:20;;;;;;;3.78;1.98;;;;;;;10.77;75.68;95386.69;5048493;28;20032;-83
2022/04/28 07:01:46;;;;;;;5.75;1.92;;;;;;;10.79;76.11;95387.22;5032915;28;20036;-83
2022/04/28 07:04:12;;;;;;;4.07;1.75;;;;;;;10.83;75.23;95383.75;5035596;28;20028;-83
2022/04/28 07:06:37;;;;;;;4.47;1.88;;;;;;;11.45;75.42;95498.50;5034390;28;20028;-83
2022/04/28 07:09:03;;;;;;;3.67;1.80;;;;;;;11.23;75.52;95486.38;5031734;28;20253;-82
2022/04/28 07:11:29;;;;;;;8.75;2.65;;;;;;;11.26;75.34;95494.88;5050513;28;20067;-83
2022/04/28 07:13:54;;;;;;;6.05;2.15;;;;;;;11.32;75.54;95488.47;5033275;28;20036;-82
2022/04/28 07:16:20;;;;;;;6.47;1.70;;;;;;;10.65;75.43;95412.72;5054466;28;20138;-82
2022/04/28 07:18:45;;;;;;;10.43;2.33;;;;;;;10.82;75.42;95422.00;5053447;28;20112;-82
2022/04/28 07:21:10;;;;;;;5.10;1.67;;;;;;;10.36;74.76;95338.25;5058572;28;20166;-82
2022/04/28 07:23:36;;;;;;;12.25;2.15;;;;;;;10.37;74.89;95350.47;5056962;28;20061;-83
2022/04/28 07:26:02;;;;;;;4.68;1.98;;;;;;;11.16;75.88;95488.50;5041375;28;20495;-83
2022/04/28 07:28:27;;;;;;;8.27;2.25;;;;;;;11.32;75.63;95499.88;5041098;28;20311;-83
2022/04/28 07:30:53;;;;;;;10.80;2.60;;;;;;;11.12;74.45;95442.34;5057558;28;20123;-83
2022/04/28 07:33:18;;;;;;;5.45;1.98;;;;;;;10.50;74.41;95343.81;5055266;28;20036;-82
2022/04/28 07:35:44;;;;;;;5.10;3.08;;;;;;;11.31;73.94;95444.38;5060639;28;20463;-82
2022/04/28 07:38:09;;;;;;;9.15;2.50;;;;;;;11.28;73.18;95410.44;5040744;28;20065;-82
2022/04/28 07:40:36;;;;;;;2.42;1.90;;;;;;;11.61;73.03;95481.44;5054749;28;20028;-82
2022/04/28 07:43:03;;;;;;;6.15;2.05;;;;;;;11.63;72.79;95486.50;5034120;28;20025;-82
2022/04/28 07:45:28;;;;;;;12.30;2.40;;;;;;;11.81;72.06;95454.84;5028332;28;20483;-82
2022/04/28 07:47:54;;;;;;;16.60;1.90;;;;;;;11.71;71.15;95441.56;5055586;28;20131;-81
2022/04/28 07:50:20;;;;;;;4.53;1.85;;;;;;;10.98;72.53;95380.28;5054084;28;20039;-82
2022/04/28 07:52:46;;;;;;;5.90;2.45;;;;;;;11.46;73.03;95473.53;5039196;28;20037;-81
2022/04/28 07:55:12;;;;;;;5.80;2.95;;;;;;;12.17;71.90;95521.88;5036325;28;20044;-81
2022/04/28 07:57:37;;;;;;;4.93;2.00;;;;;;;11.68;70.98;95443.97;5031782;28;20033;-81
2022/04/28 08:00:05;;;;;;;15.20;3.38;;;;;;;12.33;70.88;95531.38;5050129;28;20056;-82
2022/04/28 08:02:32;;;;;;;2.92;1.95;;;;;;;11.74;70.42;95429.59;5051186;28;20040;-81
2022/04/28 08:04:57;;;;;;;6.20;1.92;;;;;;;11.53;70.40;95419.06;5035350;28;20599;-81
2022/04/28 08:07:23;;;;;;;7.30;2.03;;;;;;;11.21;69.82;95358.41;5042598;28;20028;-81
2022/04/28 08:09:49;;;;;;;5.90;2.08;;;;;;;11.96;69.79;95473.38;5040349;28;20021;-81
2022/04/28 08:12:14;;;;;;;4.72;1.35;;;;;;;12.30;70.02;95547.84;5055865;28;20040;-81
2022/04/28 08:14:40;;;;;;;8.40;2.67;;;;;;;11.79;70.03;95451.66;5056412;28;20110;-81
2022/04/28 08:17:05;;;;;;;9.65;2.30;;;;;;;11.64;69.92;95448.25;5055166;28;20032;-81
2022/04/28 08:19:32;;;;;;;3.63;1.92;;;;;;;11.60;70.18;95437.34;5058192;28;20401;-81
2022/04/28 08:21:59;;;;;;;3.58;2.20;;;;;;;12.24;70.07;95538.31;5053275;28;20036;-81
2022/04/28 08:24:24;;;;;;;11.20;2.50;;;;;;;11.56;69.58;95431.03;5058164;28;20039;-83
2022/04/28 08:26:51;;;;;;;4.15;2.10;;;;;;;12.07;69.99;95513.16;5051109;28;20025;-82
2022/04/28 08:29:17;;;;;;;4.65;2.10;;;;;;;12.24;69.20;95492.31;5038650;28;20032;-83
2022/04/28 08:31:45;;;;;;;5.32;1.85;;;;;;;11.93;69.59;95459.81;5052974;28;20032;-82
2022/04/28 08:34:12;;;;;;;4.72;1.70;;;;;;;12.03;68.72;95470.41;5034718;28;20549;-83
2022/04/28 08:36:38;;;;;;;2.78;1.77;;;;;;;12.38;68.64;95503.94;5034335;28;20513;-83
2022/04/28 08:39:04;;;;;;;4.90;2.28;;;;;;;12.57;68.42;95522.69;5059565;28;20111;-83
2022/04/28 08:41:38;;;;;;;6.43;2.75;;;;;;;12.98;68.08;95539.94;5036043;28;20075;-83
2022/04/28 08:44:05;;;;;;;8.00;2.92;;;;;;;13.23;66.43;95544.28;5037518;28;20112;-83
2022/04/28 08:46:50;;;;;;;7.25;2.10;;;;;;;12.96;66.70;95512.00;5052766;28;20036;-83
2022/04/28 08:49:22;;;;;;;12.27;2.80;;;;;;;13.13;66.95;95545.16;5030252;28;20033;-82
2022/04/28 08:51:50;;;;;;;7.95;2.42;;;;;;;12.81;67.11;95490.84;5053274;28;20043;-83
2022/04/28 08:54:16;;;;;;;7.32;2.40;;;;;;;12.26;66.84;95437.00;5050996;28;20039;-83
2022/04/28 08:56:42;;;;;;;11.40;2.55;;;;;;;12.61;67.01;95484.59;5037603;28;20052;-82
2022/04/28 08:59:08;;;;;;;7.40;2.22;;;;;;;12.97;67.36;95546.31;5017419;28;20033;-82
2022/04/28 09:01:33;;;;;;;5.90;2.80;;;;;;;12.35;67.46;95467.25;5051212;28;20042;-82
2022/04/28 09:04:01;;;;;;;5.60;2.92;;;;;;;12.62;67.55;95475.56;5033651;28;20029;-82
2022/04/28 09:06:29;;;;;;;13.70;3.20;;;;;;;12.66;67.37;95478.47;5039521;28;20699;-82
2022/04/28 09:08:57;;;;;;;7.53;2.60;;;;;;;12.65;67.31;95527.44;5037684;28;20714;-82
2022/04/28 09:11:24;;;;;;;4.05;2.33;;;;;;;12.21;67.79;95434.38;5038494;28;20423;-82
2022/04/28 09:14:09;;;;;;;8.80;3.03;;;;;;;12.92;67.91;95557.03;5053162;28;20033;-82
2022/04/28 09:16:44;;;;;;;6.80;2.42;;;;;;;12.90;67.35;95553.84;5040771;28;20836;-83
2022/04/28 09:19:24;;;;;;;6.65;2.88;;;;;;;12.37;67.79;95465.91;5042024;28;20495;-83
2022/04/28 09:21:55;;;;;;;7.70;2.92;;;;;;;13.15;67.31;95558.19;5038074;28;20589;-82
2022/04/28 09:24:22;;;;;;;5.38;2.40;;;;;;;13.14;66.92;95557.38;5052199;28;20090;-82
2022/04/28 09:26:50;;;;;;;5.78;2.67;;;;;;;12.47;66.74;95437.63;5035525;28;20044;-83
2022/04/28 09:29:17;;;;;;;8.63;2.30;;;;;;;11.46;66.42;95291.09;5033171;28;20028;-83
2022/04/28 09:31:45;;;;;;;7.80;2.75;;;;;;;12.27;66.36;95415.47;5039851;28;20032;-83
2022/04/28 09:34:18;;;;;;;4.80;2.47;;;;;;;13.25;66.12;95557.31;5056102;28;20062;-83
2022/04/28 09:36:45;;;;;;;5.80;2.50;;;;;;;11.10;65.88;95285.22;5053784;28;20044;-83
2022/04/28 09:42:33;;;;;;;8.75;2.70;;;;;;;13.31;66.00;95564.97;5050630;28;20086;-82
2022/04/28 09:45:01;;;;;;;9.18;3.00;;;;;;;12.76;65.96;95507.63;5032404;28;20036;-83
2022/04/28 09:47:28;;;;;;;8.18;3.10;;;;;;;12.72;65.65;95488.00;5053353;28;20043;-83
2022/04/28 09:49:55;;;;;;;5.18;2.20;;;;;;;12.86;65.60;95496.91;5041379;28;20056;-83
2022/04/28 09:52:24;;;;;;;14.45;3.65;;;;;;;13.38;65.27;95559.31;5048319;28;20024;-82
2022/04/28 09:54:54;;;;;;;5.82;3.03;;;;;;;12.83;64.47;95428.25;5039911;28;20119;-82
2022/04/28 09:57:22;;;;;;;7.15;3.35;;;;;;;12.72;64.46;95445.41;5055909;28;20575;-83
2022/04/28 09:59:49;;;;;;;8.60;2.88;;;;;;;13.39;64.24;95521.75;5057445;28;20187;-83
2022/04/28 10:02:19;;;;;;;7.32;2.95;;;;;;;13.80;63.74;95553.28;5039061;28;20104;-83
2022/04/28 10:04:46;;;;;;;12.05;3.22;;;;;;;13.78;63.35;95550.91;5045893;28;20657;-83
2022/04/28 10:07:15;;;;;;;7.00;3.83;;;;;;;13.41;63.46;95468.97;5057669;28;20051;-83
2022/04/28 10:09:48;;;;;;;6.45;3.45;;;;;;;14.18;62.52;95544.28;5057384;28;20495;-82
2022/04/28 10:12:27;;;;;;;8.27;3.40;;;;;;;14.08;62.16;95549.72;5046510;28;20035;-82
2022/04/28 10:14:57;;;;;;;6.50;3.95;;;;;;;13.38;62.30;95466.06;5038836;28;20071;-83
2022/04/28 10:17:37;;;;;;;9.15;4.18;;;;;;;14.31;62.29;95545.44;5056046;28;20214;-83
2022/04/28 10:20:10;;;;;;;6.78;3.05;;;;;;;12.60;60.86;95269.38;5054708;28;20729;-83
2022/04/28 10:22:37;;;;;;;4.32;2.97;;;;;;;11.69;60.92;95156.78;5049136;28;20118;-82
2022/04/28 10:33:24;;;;;;;9.63;2.85;;;;;;;13.79;59.61;95411.22;5048355;28;20055;-81
2022/04/28 10:35:50;;;;;;;4.60;2.47;;;;;;;14.52;59.71;95540.63;5039733;28;20040;-81
2022/04/28 10:38:30;;;;;;;5.65;2.40;;;;;;;14.76;59.04;95533.34;5029567;28;20040;-83
2022/04/28 10:40:58;;;;;;;6.00;2.80;;;;;;;14.77;59.21;95534.91;5025708;28;20036;-81
2022/04/28 10:43:34;;;;;;;12.80;3.47;;;;;;;14.09;60.39;95455.31;5043994;28;20583;-81
2022/04/28 10:46:08;;;;;;;7.28;3.90;;;;;;;14.91;59.75;95530.41;5047874;28;20111;-82
2022/04/28 10:48:48;;;;;;;6.68;2.90;;;;;;;13.66;60.05;95360.47;5046504;28;20048;-82
2022/04/28 10:51:22;;;;;;;5.90;3.03;;;;;;;14.13;58.64;95426.97;5042362;28;20101;-82
2022/04/28 10:54:11;;;;;;;7.63;2.88;;;;;;;14.76;58.16;95460.44;5032119;28;20040;-82
2022/04/28 10:56:40;;;;;;;7.55;3.83;;;;;;;15.31;58.11;95525.47;5032306;28;20040;-82
2022/04/28 11:02:23;;;;;;;7.50;3.47;;;;;;;15.16;57.71;95525.75;5031970;28;20033;-82
2022/04/28 11:05:06;;;;;;;9.55;4.32;;;;;;;14.28;58.44;95437.41;5049851;28;20032;-81
2022/04/28 11:07:32;;;;;;;11.43;3.03;;;;;;;14.12;58.17;95436.06;5028265;28;20082;-82
2022/04/28 11:10:03;;;;;;;9.48;3.35;;;;;;;14.45;59.70;95476.16;5050881;28;20020;-82
2022/04/28 11:12:37;;;;;;;11.50;3.22;;;;;;;13.78;58.53;95379.50;5032006;28;20092;-82
2022/04/28 11:15:06;;;;;;;9.95;3.60;;;;;;;14.32;58.97;95450.97;5031907;28;20032;-81
2022/04/28 11:17:35;;;;;;;9.45;4.22;;;;;;;14.19;59.49;95449.81;5051246;28;20479;-82
2022/04/28 11:20:12;;;;;;;7.93;4.38;;;;;;;14.20;58.72;95427.41;5047850;28;20033;-82
2022/04/28 11:22:56;;;;;;;12.88;4.78;;;;;;;15.13;58.01;95505.75;5026630;28;20046;-81
2022/04/28 11:25:22;;;;;;;13.13;4.40;;;;;;;15.04;57.25;95454.09;4999280;28;20096;-82
2022/04/28 11:27:50;;;;;;;10.63;5.82;;;;;;;14.54;57.40;95376.47;5012021;28;20072;-82
2022/04/28 11:30:28;;;;;;;14.57;4.90;;;;;;;14.59;56.58;95356.91;5003844;28;20527;-82
2022/04/28 11:32:58;;;;;;;7.70;4.20;;;;;;;15.35;57.57;95519.25;5005811;28;20041;-81
2022/04/28 11:35:30;;;;;;;14.88;4.30;;;;;;;15.22;57.63;95524.56;5010849;28;20037;-82
2022/04/28 11:37:56;;;;;;;12.65;5.15;;;;;;;15.32;57.77;95516.38;5010351;28;20045;-82
2022/04/28 11:40:25;;;;;;;17.52;5.15;;;;;;;15.13;57.24;95463.00;5007181;28;20037;-83
2022/04/28 11:43:01;;;;;;;8.52;4.40;;;;;;;15.13;56.79;95460.34;5013404;28;20035;-83
2022/04/28 11:45:31;;;;;;;14.43;6.25;;;;;;;15.16;57.11;95456.28;5004293;28;20040;-82
2022/04/28 11:47:59;;;;;;;10.20;5.03;;;;;;;14.92;57.15;95448.44;5009578;28;20030;-83
2022/04/28 11:50:30;;;;;;;12.45;4.78;;;;;;;15.18;57.87;95511.00;5011913;28;20029;-83
2022/04/28 11:53:06;;;;;;;10.13;5.15;;;;;;;14.94;57.43;95476.44;5008113;28;20038;-82
2022/04/28 11:55:40;;;;;;;11.95;5.82;;;;;;;14.75;57.99;95466.88;5003224;28;20083;-82
2022/04/28 11:58:08;;;;;;;10.10;5.68;;;;;;;14.70;58.44;95466.97;5005393;28;20038;-82
2022/04/28 12:00:38;;;;;;;9.02;5.10;;;;;;;14.85;58.32;95496.88;5008396;28;20033;-83
2022/04/28 12:03:04;;;;;;;12.90;5.55;;;;;;;14.95;58.87;95514.63;5007246;28;20124;-83